sensor_id;sensor_type;location;lat;lon;timestamp;temperature;humidity
36186;DHT22;22228;53.222;7.446;2023-04-06T00:01:51;1.50;99.90
36186;DHT22;22228;53.222;7.446;2023-04-06T00:04:37;1.40;99.90
36186;DHT22;22228;53.222;7.446;2023-04-06T00:06:58;1.40;99.90
36186;DHT22;22228;53.222;7.446;2023-04-06T00:09:19;1.50;99.90
36186;DHT22;22228;53.222;7.446;2023-04-06T00:11:39;1.50;99.90
36186;DHT22;22228;53.222;7.446;2023-04-06T00:14:05;1.40;99.90
36186;DHT22;22228;53.222;7.446;2023-04-06T03:03:20;0.40;99.90
36186;DHT22;22228;53.222;7.446;2023-04-06T03:05:42;0.40;99.90
36186;DHT22;22228;53.222;7.446;2023-04-06T03:08:04;0.40;99.90
36186;DHT22;22228;53.222;7.446;2023-04-06T03:10:33;0.40;99.90
36186;DHT22;22228;53.222;7.446;2023-04-06T03:12:54;0.40;99.90
36186;DHT22;22228;53.222;7.446;2023-04-06T03:15:24;0.40;99.90
36186;DHT22;22228;53.222;7.446;2023-04-06T03:17:57;0.40;99.90
36186;DHT22;22228;53.222;7.446;2023-04-06T03:20:34;0.40;99.90
36186;DHT22;22228;53.222;7.446;2023-04-06T03:22:55;0.30;99.90
36186;DHT22;22228;53.222;7.446;2023-04-06T03:25:46;0.30;99.90
36186;DHT22;22228;53.222;7.446;2023-04-06T03:28:10;0.30;99.90
36186;DHT22;22228;53.222;7.446;2023-04-06T03:30:41;0.30;99.90
36186;DHT22;22228;53.222;7.446;2023-04-06T03:33:03;0.30;99.90
36186;DHT22;22228;53.222;7.446;2023-04-06T03:35:29;0.30;99.90
36186;DHT22;22228;53.222;7.446;2023-04-06T03:37:53;0.30;99.90
36186;DHT22;22228;53.222;7.446;2023-04-06T03:43:31;0.20;99.90
36186;DHT22;22228;53.222;7.446;2023-04-06T03:45:53;0.20;99.90
36186;DHT22;22228;53.222;7.446;2023-04-06T03:48:41;0.20;99.90
36186;DHT22;22228;53.222;7.446;2023-04-06T03:51:02;0.20;99.90
36186;DHT22;22228;53.222;7.446;2023-04-06T03:53:50;0.20;99.90
36186;DHT22;22228;53.222;7.446;2023-04-06T03:56:11;0.20;99.90
36186;DHT22;22228;53.222;7.446;2023-04-06T03:58:33;0.20;99.90
36186;DHT22;22228;53.222;7.446;2023-04-06T04:00:54;0.20;99.90
36186;DHT22;22228;53.222;7.446;2023-04-06T04:03:18;0.20;99.90
36186;DHT22;22228;53.222;7.446;2023-04-06T04:05:47;0.20;99.90
36186;DHT22;22228;53.222;7.446;2023-04-06T04:08:08;0.20;99.90
36186;DHT22;22228;53.222;7.446;2023-04-06T04:10:30;0.20;99.90
36186;DHT22;22228;53.222;7.446;2023-04-06T04:13:17;0.20;99.90
36186;DHT22;22228;53.222;7.446;2023-04-06T04:15:47;0.10;99.90
36186;DHT22;22228;53.222;7.446;2023-04-06T04:18:09;0.00;99.90
36186;DHT22;22228;53.222;7.446;2023-04-06T04:20:54;0.00;99.90
36186;DHT22;22228;53.222;7.446;2023-04-06T04:23:16;-0.10;99.90
36186;DHT22;22228;53.222;7.446;2023-04-06T04:25:38;-0.10;99.90
36186;DHT22;22228;53.222;7.446;2023-04-06T04:28:26;-0.10;99.90
36186;DHT22;22228;53.222;7.446;2023-04-06T04:30:48;-0.20;99.90
36186;DHT22;22228;53.222;7.446;2023-04-06T04:33:16;-0.20;99.90
36186;DHT22;22228;53.222;7.446;2023-04-06T04:35:44;-0.20;99.90
36186;DHT22;22228;53.222;7.446;2023-04-06T04:38:09;-0.20;99.90
36186;DHT22;22228;53.222;7.446;2023-04-06T04:40:34;-0.30;99.90
36186;DHT22;22228;53.222;7.446;2023-04-06T04:43:06;-0.20;99.90
36186;DHT22;22228;53.222;7.446;2023-04-06T04:45:34;-0.20;99.90
36186;DHT22;22228;53.222;7.446;2023-04-06T04:48:08;-0.20;99.90
36186;DHT22;22228;53.222;7.446;2023-04-06T04:50:54;-0.20;99.90
36186;DHT22;22228;53.222;7.446;2023-04-06T04:53:40;-0.20;99.90
36186;DHT22;22228;53.222;7.446;2023-04-06T04:56:14;-0.30;99.90
36186;DHT22;22228;53.222;7.446;2023-04-06T04:58:38;-0.30;99.90
36186;DHT22;22228;53.222;7.446;2023-04-06T05:01:33;-0.20;99.90
36186;DHT22;22228;53.222;7.446;2023-04-06T05:03:56;-0.30;99.90
36186;DHT22;22228;53.222;7.446;2023-04-06T05:06:24;-0.20;99.90
36186;DHT22;22228;53.222;7.446;2023-04-06T05:08:52;-0.20;99.90
36186;DHT22;22228;53.222;7.446;2023-04-06T05:11:38;-0.20;99.90
36186;DHT22;22228;53.222;7.446;2023-04-06T05:14:00;-0.20;99.90
36186;DHT22;22228;53.222;7.446;2023-04-06T05:16:22;-0.30;99.90
36186;DHT22;22228;53.222;7.446;2023-04-06T05:18:43;-0.30;99.90
36186;DHT22;22228;53.222;7.446;2023-04-06T05:21:04;-0.30;99.90
36186;DHT22;22228;53.222;7.446;2023-04-06T05:23:36;-0.30;99.90
36186;DHT22;22228;53.222;7.446;2023-04-06T05:25:56;-0.30;99.90
36186;DHT22;22228;53.222;7.446;2023-04-06T05:28:18;-0.30;99.90
36186;DHT22;22228;53.222;7.446;2023-04-06T05:30:41;-0.20;99.90
36186;DHT22;22228;53.222;7.446;2023-04-06T05:33:10;-0.20;99.90
36186;DHT22;22228;53.222;7.446;2023-04-06T05:35:59;-0.20;99.90
36186;DHT22;22228;53.222;7.446;2023-04-06T05:38:32;-0.20;99.90
36186;DHT22;22228;53.222;7.446;2023-04-06T05:41:01;-0.20;99.90
36186;DHT22;22228;53.222;7.446;2023-04-06T05:43:33;-0.20;99.90
36186;DHT22;22228;53.222;7.446;2023-04-06T05:45:57;-0.20;99.90
36186;DHT22;22228;53.222;7.446;2023-04-06T05:48:19;-0.10;99.90
36186;DHT22;22228;53.222;7.446;2023-04-06T05:50:41;-0.10;99.90
36186;DHT22;22228;53.222;7.446;2023-04-06T05:53:06;0.00;99.90
36186;DHT22;22228;53.222;7.446;2023-04-06T05:55:33;0.00;99.90
36186;DHT22;22228;53.222;7.446;2023-04-06T05:58:03;0.00;99.90
36186;DHT22;22228;53.222;7.446;2023-04-06T06:00:49;0.00;99.90
36186;DHT22;22228;53.222;7.446;2023-04-06T06:03:13;0.10;99.90
36186;DHT22;22228;53.222;7.446;2023-04-06T06:05:46;0.10;99.90
36186;DHT22;22228;53.222;7.446;2023-04-06T06:08:41;0.20;99.90
36186;DHT22;22228;53.222;7.446;2023-04-06T06:11:07;0.30;99.90
36186;DHT22;22228;53.222;7.446;2023-04-06T06:13:28;0.40;99.90
36186;DHT22;22228;53.222;7.446;2023-04-06T06:16:14;0.40;99.90
36186;DHT22;22228;53.222;7.446;2023-04-06T06:18:42;0.50;99.90
36186;DHT22;22228;53.222;7.446;2023-04-06T06:21:03;0.60;99.90
36186;DHT22;22228;53.222;7.446;2023-04-06T06:23:35;0.70;99.90
36186;DHT22;22228;53.222;7.446;2023-04-06T06:25:56;0.70;99.90
36186;DHT22;22228;53.222;7.446;2023-04-06T06:28:19;0.80;99.90
36186;DHT22;22228;53.222;7.446;2023-04-06T06:31:05;0.90;99.90
36186;DHT22;22228;53.222;7.446;2023-04-06T06:33:29;0.90;99.90
36186;DHT22;22228;53.222;7.446;2023-04-06T06:35:53;1.00;99.90
36186;DHT22;22228;53.222;7.446;2023-04-06T06:38:20;1.10;99.90
36186;DHT22;22228;53.222;7.446;2023-04-06T06:41:10;1.20;99.90
36186;DHT22;22228;53.222;7.446;2023-04-06T06:43:32;1.30;99.90
36186;DHT22;22228;53.222;7.446;2023-04-06T06:46:01;1.40;99.90
36186;DHT22;22228;53.222;7.446;2023-04-06T06:48:50;1.50;99.90
36186;DHT22;22228;53.222;7.446;2023-04-06T06:51:18;1.60;99.90
36186;DHT22;22228;53.222;7.446;2023-04-06T06:53:40;1.70;99.90
36186;DHT22;22228;53.222;7.446;2023-04-06T06:56:01;1.80;99.90
36186;DHT22;22228;53.222;7.446;2023-04-06T06:58:23;1.90;99.90
36186;DHT22;22228;53.222;7.446;2023-04-06T07:00:45;2.00;99.90
36186;DHT22;22228;53.222;7.446;2023-04-06T07:03:12;2.10;99.90
36186;DHT22;22228;53.222;7.446;2023-04-06T07:05:34;2.20;99.90
36186;DHT22;22228;53.222;7.446;2023-04-06T07:07:58;2.30;99.90
36186;DHT22;22228;53.222;7.446;2023-04-06T07:10:42;2.40;99.90
36186;DHT22;22228;53.222;7.446;2023-04-06T07:13:28;2.60;99.90
36186;DHT22;22228;53.222;7.446;2023-04-06T07:15:51;2.70;99.90
36186;DHT22;22228;53.222;7.446;2023-04-06T07:18:37;2.90;99.90
36186;DHT22;22228;53.222;7.446;2023-04-06T07:20:59;3.00;99.90
36186;DHT22;22228;53.222;7.446;2023-04-06T07:23:27;3.10;99.90
36186;DHT22;22228;53.222;7.446;2023-04-06T07:25:48;3.20;99.90
36186;DHT22;22228;53.222;7.446;2023-04-06T07:28:38;3.40;99.90
36186;DHT22;22228;53.222;7.446;2023-04-06T07:31:01;3.50;99.90
36186;DHT22;22228;53.222;7.446;2023-04-06T07:33:28;3.60;99.90
36186;DHT22;22228;53.222;7.446;2023-04-06T07:35:50;3.70;99.90
36186;DHT22;22228;53.222;7.446;2023-04-06T07:38:11;3.80;99.90
36186;DHT22;22228;53.222;7.446;2023-04-06T07:40:35;4.00;99.90
36186;DHT22;22228;53.222;7.446;2023-04-06T07:43:27;4.10;99.90
36186;DHT22;22228;53.222;7.446;2023-04-06T07:45:49;4.30;99.90
36186;DHT22;22228;53.222;7.446;2023-04-06T07:48:11;4.40;99.90
36186;DHT22;22228;53.222;7.446;2023-04-06T07:50:33;4.50;99.90
36186;DHT22;22228;53.222;7.446;2023-04-06T07:53:25;4.60;1.00
36186;DHT22;22228;53.222;7.446;2023-04-06T07:55:52;4.80;1.00
36186;DHT22;22228;53.222;7.446;2023-04-06T07:58:15;5.00;1.00
36186;DHT22;22228;53.222;7.446;2023-04-06T08:00:36;5.20;1.00
36186;DHT22;22228;53.222;7.446;2023-04-06T08:02:58;5.30;99.90
36186;DHT22;22228;53.222;7.446;2023-04-06T08:05:20;5.50;99.90
36186;DHT22;22228;53.222;7.446;2023-04-06T08:07:47;5.60;1.00
36186;DHT22;22228;53.222;7.446;2023-04-06T08:10:09;5.80;1.00
36186;DHT22;22228;53.222;7.446;2023-04-06T08:12:37;6.00;99.90
36186;DHT22;22228;53.222;7.446;2023-04-06T08:14:57;6.10;1.00
36186;DHT22;22228;53.222;7.446;2023-04-06T08:17:48;6.20;1.00
36186;DHT22;22228;53.222;7.446;2023-04-06T08:20:10;6.40;1.00
36186;DHT22;22228;53.222;7.446;2023-04-06T08:22:34;6.60;94.40
36186;DHT22;22228;53.222;7.446;2023-04-06T08:24:56;6.70;1.00
36186;DHT22;22228;53.222;7.446;2023-04-06T08:27:17;6.80;1.00
36186;DHT22;22228;53.222;7.446;2023-04-06T08:29:45;6.90;1.00
36186;DHT22;22228;53.222;7.446;2023-04-06T08:32:07;7.00;1.00
36186;DHT22;22228;53.222;7.446;2023-04-06T08:34:28;7.20;1.00
36186;DHT22;22228;53.222;7.446;2023-04-06T08:37:15;7.30;1.00
36186;DHT22;22228;53.222;7.446;2023-04-06T08:39:35;7.50;99.90
36186;DHT22;22228;53.222;7.446;2023-04-06T08:42:11;7.60;1.00
36186;DHT22;22228;53.222;7.446;2023-04-06T08:44:33;7.70;1.00
36186;DHT22;22228;53.222;7.446;2023-04-06T08:46:56;7.90;99.90
36186;DHT22;22228;53.222;7.446;2023-04-06T08:49:42;8.00;42.70
36186;DHT22;22228;53.222;7.446;2023-04-06T08:52:10;8.10;44.50
36186;DHT22;22228;53.222;7.446;2023-04-06T08:54:32;8.20;1.00
36186;DHT22;22228;53.222;7.446;2023-04-06T08:56:53;8.30;1.00
36186;DHT22;22228;53.222;7.446;2023-04-06T08:59:18;8.50;1.00
36186;DHT22;22228;53.222;7.446;2023-04-06T09:01:40;8.70;1.00
36186;DHT22;22228;53.222;7.446;2023-04-06T09:04:06;8.90;1.00
36186;DHT22;22228;53.222;7.446;2023-04-06T09:06:30;9.00;1.00
36186;DHT22;22228;53.222;7.446;2023-04-06T09:09:18;9.10;1.00
36186;DHT22;22228;53.222;7.446;2023-04-06T09:11:45;9.30;99.90
36186;DHT22;22228;53.222;7.446;2023-04-06T09:17:06;9.50;99.90
36186;DHT22;22228;53.222;7.446;2023-04-06T09:19:28;9.60;99.90
36186;DHT22;22228;53.222;7.446;2023-04-06T09:22:14;9.60;14.80
36186;DHT22;22228;53.222;7.446;2023-04-06T09:24:43;9.80;18.40
36186;DHT22;22228;53.222;7.446;2023-04-06T09:27:04;9.90;90.60
36186;DHT22;22228;53.222;7.446;2023-04-06T09:29:27;10.00;95.00
36186;DHT22;22228;53.222;7.446;2023-04-06T09:31:48;10.10;99.90
36186;DHT22;22228;53.222;7.446;2023-04-06T09:34:20;10.30;99.90
36186;DHT22;22228;53.222;7.446;2023-04-06T09:36:48;10.40;99.90
36186;DHT22;22228;53.222;7.446;2023-04-06T09:39:12;10.50;99.90
36186;DHT22;22228;53.222;7.446;2023-04-06T09:41:36;10.60;99.90
36186;DHT22;22228;53.222;7.446;2023-04-06T09:44:04;10.60;99.90
36186;DHT22;22228;53.222;7.446;2023-04-06T09:46:25;10.70;99.90
36186;DHT22;22228;53.222;7.446;2023-04-06T09:48:47;10.80;99.90
36186;DHT22;22228;53.222;7.446;2023-04-06T09:51:38;10.90;99.90
36186;DHT22;22228;53.222;7.446;2023-04-06T09:54:02;11.00;99.90
36186;DHT22;22228;53.222;7.446;2023-04-06T09:56:50;11.00;99.90
36186;DHT22;22228;53.222;7.446;2023-04-06T09:59:26;11.10;99.90
36186;DHT22;22228;53.222;7.446;2023-04-06T10:01:52;11.30;99.90
36186;DHT22;22228;53.222;7.446;2023-04-06T10:04:23;11.40;99.90
36186;DHT22;22228;53.222;7.446;2023-04-06T10:07:10;11.50;99.90
36186;DHT22;22228;53.222;7.446;2023-04-06T10:09:35;11.70;99.90
36186;DHT22;22228;53.222;7.446;2023-04-06T10:11:59;11.80;99.90
36186;DHT22;22228;53.222;7.446;2023-04-06T10:14:22;11.80;99.90
36186;DHT22;22228;53.222;7.446;2023-04-06T10:16:44;11.90;99.90
36186;DHT22;22228;53.222;7.446;2023-04-06T10:19:11;12.00;99.90
36186;DHT22;22228;53.222;7.446;2023-04-06T10:21:35;12.20;99.90
36186;DHT22;22228;53.222;7.446;2023-04-06T10:23:59;12.30;99.90
36186;DHT22;22228;53.222;7.446;2023-04-06T10:26:22;12.40;99.90
36186;DHT22;22228;53.222;7.446;2023-04-06T10:28:45;12.40;99.90
36186;DHT22;22228;53.222;7.446;2023-04-06T10:31:31;12.50;99.90
36186;DHT22;22228;53.222;7.446;2023-04-06T10:33:56;12.70;99.90
36186;DHT22;22228;53.222;7.446;2023-04-06T10:36:41;12.80;99.90
36186;DHT22;22228;53.222;7.446;2023-04-06T10:39:03;12.90;99.90
36186;DHT22;22228;53.222;7.446;2023-04-06T10:42:06;13.00;99.90
36186;DHT22;22228;53.222;7.446;2023-04-06T10:44:27;13.10;99.90
36186;DHT22;22228;53.222;7.446;2023-04-06T10:46:56;13.10;99.90
36186;DHT22;22228;53.222;7.446;2023-04-06T10:49:17;13.30;99.90
36186;DHT22;22228;53.222;7.446;2023-04-06T10:51:40;13.40;99.90
36186;DHT22;22228;53.222;7.446;2023-04-06T10:54:26;13.60;99.90
36186;DHT22;22228;53.222;7.446;2023-04-06T10:56:48;13.90;99.90
36186;DHT22;22228;53.222;7.446;2023-04-06T10:59:35;14.10;99.90
36186;DHT22;22228;53.222;7.446;2023-04-06T11:02:02;14.30;99.90
36186;DHT22;22228;53.222;7.446;2023-04-06T11:04:30;14.50;99.90
36186;DHT22;22228;53.222;7.446;2023-04-06T11:06:51;14.70;99.90
36186;DHT22;22228;53.222;7.446;2023-04-06T11:09:23;14.80;99.90
36186;DHT22;22228;53.222;7.446;2023-04-06T11:11:44;14.90;99.90
36186;DHT22;22228;53.222;7.446;2023-04-06T11:14:09;15.00;99.90
36186;DHT22;22228;53.222;7.446;2023-04-06T11:16:32;15.00;99.90
36186;DHT22;22228;53.222;7.446;2023-04-06T11:19:24;14.90;99.90
36186;DHT22;22228;53.222;7.446;2023-04-06T11:21:52;14.70;99.90
36186;DHT22;22228;53.222;7.446;2023-04-06T11:24:14;14.60;99.90
36186;DHT22;22228;53.222;7.446;2023-04-06T11:26:40;14.50;99.90
36186;DHT22;22228;53.222;7.446;2023-04-06T11:29:00;14.50;99.90
36186;DHT22;22228;53.222;7.446;2023-04-06T11:31:25;14.40;99.90
36186;DHT22;22228;53.222;7.446;2023-04-06T11:33:56;14.30;99.90
36186;DHT22;22228;53.222;7.446;2023-04-06T11:36:17;14.10;99.90
36186;DHT22;22228;53.222;7.446;2023-04-06T11:38:39;14.00;99.90
36186;DHT22;22228;53.222;7.446;2023-04-06T11:41:01;14.00;99.90
36186;DHT22;22228;53.222;7.446;2023-04-06T11:43:27;14.10;99.90
36186;DHT22;22228;53.222;7.446;2023-04-06T11:46:17;14.10;99.90
36186;DHT22;22228;53.222;7.446;2023-04-06T11:48:45;14.40;99.90
36186;DHT22;22228;53.222;7.446;2023-04-06T11:51:07;14.30;99.90
36186;DHT22;22228;53.222;7.446;2023-04-06T11:53:28;14.30;99.90
36186;DHT22;22228;53.222;7.446;2023-04-06T11:56:25;14.50;99.90
36186;DHT22;22228;53.222;7.446;2023-04-06T11:59:11;14.60;99.90
36186;DHT22;22228;53.222;7.446;2023-04-06T12:04:46;14.60;99.90
36186;DHT22;22228;53.222;7.446;2023-04-06T12:07:08;14.80;99.90
36186;DHT22;22228;53.222;7.446;2023-04-06T12:09:29;15.00;99.90
36186;DHT22;22228;53.222;7.446;2023-04-06T12:11:50;14.90;99.90
36186;DHT22;22228;53.222;7.446;2023-04-06T12:14:35;14.70;99.90
36186;DHT22;22228;53.222;7.446;2023-04-06T12:16:56;14.60;99.90
36186;DHT22;22228;53.222;7.446;2023-04-06T12:19:18;14.60;99.90
36186;DHT22;22228;53.222;7.446;2023-04-06T12:21:39;14.80;99.90
36186;DHT22;22228;53.222;7.446;2023-04-06T12:24:27;15.20;99.90
36186;DHT22;22228;53.222;7.446;2023-04-06T12:26:54;15.50;99.90
36186;DHT22;22228;53.222;7.446;2023-04-06T12:29:42;15.60;99.90
36186;DHT22;22228;53.222;7.446;2023-04-06T12:32:04;15.70;99.90
36186;DHT22;22228;53.222;7.446;2023-04-06T12:34:25;15.90;99.90
36186;DHT22;22228;53.222;7.446;2023-04-06T12:36:46;15.90;99.90
36186;DHT22;22228;53.222;7.446;2023-04-06T12:39:07;15.90;99.90
36186;DHT22;22228;53.222;7.446;2023-04-06T12:41:29;16.00;99.90
36186;DHT22;22228;53.222;7.446;2023-04-06T12:43:52;16.00;99.90
36186;DHT22;22228;53.222;7.446;2023-04-06T12:46:12;15.80;99.90
36186;DHT22;22228;53.222;7.446;2023-04-06T12:48:33;15.90;99.90
36186;DHT22;22228;53.222;7.446;2023-04-06T12:50:55;16.00;99.90
36186;DHT22;22228;53.222;7.446;2023-04-06T12:53:17;16.10;99.90
36186;DHT22;22228;53.222;7.446;2023-04-06T12:55:37;16.10;99.90
36186;DHT22;22228;53.222;7.446;2023-04-06T12:58:02;16.10;99.90
36186;DHT22;22228;53.222;7.446;2023-04-06T13:00:23;16.20;99.90
36186;DHT22;22228;53.222;7.446;2023-04-06T13:02:45;16.30;99.90
36186;DHT22;22228;53.222;7.446;2023-04-06T13:05:14;16.40;99.90
36186;DHT22;22228;53.222;7.446;2023-04-06T13:07:38;16.30;99.90
36186;DHT22;22228;53.222;7.446;2023-04-06T13:10:06;16.30;99.90
36186;DHT22;22228;53.222;7.446;2023-04-06T13:12:54;16.20;97.30
36186;DHT22;22228;53.222;7.446;2023-04-06T13:15:16;16.00;96.90
36186;DHT22;22228;53.222;7.446;2023-04-06T13:17:38;16.10;97.00
36186;DHT22;22228;53.222;7.446;2023-04-06T13:20:02;16.40;97.60
36186;DHT22;22228;53.222;7.446;2023-04-06T13:22:23;16.70;97.10
36186;DHT22;22228;53.222;7.446;2023-04-06T13:24:48;16.90;93.90
36186;DHT22;22228;53.222;7.446;2023-04-06T13:27:11;17.60;94.70
36186;DHT22;22228;53.222;7.446;2023-04-06T13:29:32;18.20;94.00
36186;DHT22;22228;53.222;7.446;2023-04-06T13:31:55;18.50;93.90
36186;DHT22;22228;53.222;7.446;2023-04-06T13:34:16;18.00;89.90
36186;DHT22;22228;53.222;7.446;2023-04-06T13:36:43;17.50;88.70
36186;DHT22;22228;53.222;7.446;2023-04-06T13:39:03;17.10;88.30
36186;DHT22;22228;53.222;7.446;2023-04-06T13:41:25;16.90;90.30
36186;DHT22;22228;53.222;7.446;2023-04-06T13:43:52;16.80;90.10
36186;DHT22;22228;53.222;7.446;2023-04-06T13:46:21;16.70;90.30
36186;DHT22;22228;53.222;7.446;2023-04-06T13:48:45;16.40;90.90
36186;DHT22;22228;53.222;7.446;2023-04-06T13:51:13;16.20;90.70
36186;DHT22;22228;53.222;7.446;2023-04-06T13:53:42;15.90;91.50
36186;DHT22;22228;53.222;7.446;2023-04-06T13:56:03;15.90;91.00
36186;DHT22;22228;53.222;7.446;2023-04-06T13:58:24;16.00;90.20
36186;DHT22;22228;53.222;7.446;2023-04-06T14:01:11;16.20;91.80
36186;DHT22;22228;53.222;7.446;2023-04-06T14:03:58;16.30;91.80
36186;DHT22;22228;53.222;7.446;2023-04-06T14:06:48;16.20;93.00
36186;DHT22;22228;53.222;7.446;2023-04-06T14:09:11;16.00;91.20
36186;DHT22;22228;53.222;7.446;2023-04-06T14:11:38;15.70;91.20
36186;DHT22;22228;53.222;7.446;2023-04-06T14:14:00;15.50;93.20
36186;DHT22;22228;53.222;7.446;2023-04-06T14:16:23;15.60;93.90
36186;DHT22;22228;53.222;7.446;2023-04-06T14:18:45;15.70;92.90
36186;DHT22;22228;53.222;7.446;2023-04-06T14:21:07;15.80;92.10
36186;DHT22;22228;53.222;7.446;2023-04-06T14:23:28;16.00;93.80
36186;DHT22;22228;53.222;7.446;2023-04-06T14:25:49;16.30;94.10
36186;DHT22;22228;53.222;7.446;2023-04-06T14:28:10;16.30;92.30
36186;DHT22;22228;53.222;7.446;2023-04-06T14:30:32;16.20;92.10
36186;DHT22;22228;53.222;7.446;2023-04-06T14:32:56;16.20;93.00
36186;DHT22;22228;53.222;7.446;2023-04-06T14:35:18;16.20;93.50
36186;DHT22;22228;53.222;7.446;2023-04-06T14:38:03;16.20;90.90
36186;DHT22;22228;53.222;7.446;2023-04-06T14:43:38;16.10;92.70
36186;DHT22;22228;53.222;7.446;2023-04-06T14:46:02;16.00;92.30
36186;DHT22;22228;53.222;7.446;2023-04-06T14:48:23;16.00;93.30
36186;DHT22;22228;53.222;7.446;2023-04-06T14:50:54;16.00;93.60
36186;DHT22;22228;53.222;7.446;2023-04-06T14:53:17;16.10;93.10
36186;DHT22;22228;53.222;7.446;2023-04-06T14:55:39;16.20;93.10
36186;DHT22;22228;53.222;7.446;2023-04-06T14:58:01;16.30;93.10
36186;DHT22;22228;53.222;7.446;2023-04-06T15:00:23;16.30;93.50
36186;DHT22;22228;53.222;7.446;2023-04-06T15:02:44;16.40;92.60
36186;DHT22;22228;53.222;7.446;2023-04-06T15:05:11;16.20;91.90
36186;DHT22;22228;53.222;7.446;2023-04-06T15:07:32;16.10;91.50
36186;DHT22;22228;53.222;7.446;2023-04-06T15:09:57;16.10;92.60
36186;DHT22;22228;53.222;7.446;2023-04-06T15:12:41;16.00;93.90
36186;DHT22;22228;53.222;7.446;2023-04-06T15:15:26;15.70;93.70
36186;DHT22;22228;53.222;7.446;2023-04-06T15:17:48;15.60;93.60
36186;DHT22;22228;53.222;7.446;2023-04-06T15:20:12;15.40;93.70
36186;DHT22;22228;53.222;7.446;2023-04-06T15:22:32;15.20;92.90
36186;DHT22;22228;53.222;7.446;2023-04-06T15:24:54;15.00;93.30
36186;DHT22;22228;53.222;7.446;2023-04-06T15:27:16;15.00;94.50
36186;DHT22;22228;53.222;7.446;2023-04-06T15:29:37;14.90;94.50
36186;DHT22;22228;53.222;7.446;2023-04-06T15:32:04;14.70;95.00
36186;DHT22;22228;53.222;7.446;2023-04-06T15:34:25;14.70;96.40
36186;DHT22;22228;53.222;7.446;2023-04-06T15:36:49;14.70;97.00
36186;DHT22;22228;53.222;7.446;2023-04-06T15:39:34;14.60;98.60
36186;DHT22;22228;53.222;7.446;2023-04-06T15:41:57;14.50;97.90
36186;DHT22;22228;53.222;7.446;2023-04-06T15:44:18;14.40;97.80
36186;DHT22;22228;53.222;7.446;2023-04-06T15:47:05;14.20;96.60
36186;DHT22;22228;53.222;7.446;2023-04-06T15:49:27;14.00;98.10
36186;DHT22;22228;53.222;7.446;2023-04-06T15:51:52;14.00;98.10
36186;DHT22;22228;53.222;7.446;2023-04-06T15:54:13;13.80;99.20
36186;DHT22;22228;53.222;7.446;2023-04-06T15:56:34;13.80;99.70
36186;DHT22;22228;53.222;7.446;2023-04-06T15:59:01;13.70;99.90
36186;DHT22;22228;53.222;7.446;2023-04-06T16:01:28;13.60;99.90
36186;DHT22;22228;53.222;7.446;2023-04-06T16:03:49;13.50;99.90
36186;DHT22;22228;53.222;7.446;2023-04-06T16:06:11;13.40;99.90
36186;DHT22;22228;53.222;7.446;2023-04-06T16:08:33;13.40;99.90
36186;DHT22;22228;53.222;7.446;2023-04-06T16:10:58;13.30;99.90
36186;DHT22;22228;53.222;7.446;2023-04-06T16:13:21;13.30;99.90
36186;DHT22;22228;53.222;7.446;2023-04-06T16:15:44;13.30;99.90
36186;DHT22;22228;53.222;7.446;2023-04-06T16:18:14;13.20;99.90
36186;DHT22;22228;53.222;7.446;2023-04-06T16:20:37;13.20;99.90
36186;DHT22;22228;53.222;7.446;2023-04-06T16:22:58;13.20;99.90
36186;DHT22;22228;53.222;7.446;2023-04-06T16:25:20;13.00;99.90
36186;DHT22;22228;53.222;7.446;2023-04-06T16:27:43;12.90;99.90
36186;DHT22;22228;53.222;7.446;2023-04-06T16:30:06;12.90;99.90
36186;DHT22;22228;53.222;7.446;2023-04-06T16:32:27;12.80;99.90
36186;DHT22;22228;53.222;7.446;2023-04-06T16:34:53;12.70;99.90
36186;DHT22;22228;53.222;7.446;2023-04-06T16:37:18;12.60;99.90
36186;DHT22;22228;53.222;7.446;2023-04-06T16:40:09;12.50;99.90
36186;DHT22;22228;53.222;7.446;2023-04-06T16:42:34;12.40;99.90
36186;DHT22;22228;53.222;7.446;2023-04-06T16:45:01;12.30;99.90
36186;DHT22;22228;53.222;7.446;2023-04-06T16:47:26;12.30;99.90
36186;DHT22;22228;53.222;7.446;2023-04-06T16:49:52;12.30;99.90
36186;DHT22;22228;53.222;7.446;2023-04-06T16:52:22;12.20;99.90
36186;DHT22;22228;53.222;7.446;2023-04-06T16:54:44;12.20;99.90
36186;DHT22;22228;53.222;7.446;2023-04-06T16:57:05;12.10;99.90
36186;DHT22;22228;53.222;7.446;2023-04-06T16:59:27;12.00;99.90
36186;DHT22;22228;53.222;7.446;2023-04-06T17:01:49;12.00;99.90
36186;DHT22;22228;53.222;7.446;2023-04-06T17:04:36;12.00;99.90
36186;DHT22;22228;53.222;7.446;2023-04-06T17:07:29;11.90;99.90
36186;DHT22;22228;53.222;7.446;2023-04-06T17:09:53;11.90;99.90
36186;DHT22;22228;53.222;7.446;2023-04-06T17:12:20;11.90;99.90
36186;DHT22;22228;53.222;7.446;2023-04-06T17:14:42;11.80;99.90
36186;DHT22;22228;53.222;7.446;2023-04-06T17:17:11;11.70;99.90
36186;DHT22;22228;53.222;7.446;2023-04-06T17:19:32;11.70;99.90
36186;DHT22;22228;53.222;7.446;2023-04-06T17:21:54;11.70;99.90
36186;DHT22;22228;53.222;7.446;2023-04-06T17:24:17;11.80;99.90
36186;DHT22;22228;53.222;7.446;2023-04-06T17:26:39;11.80;99.90
36186;DHT22;22228;53.222;7.446;2023-04-06T17:29:01;11.70;99.90
36186;DHT22;22228;53.222;7.446;2023-04-06T17:31:46;11.70;99.90
36186;DHT22;22228;53.222;7.446;2023-04-06T17:34:11;11.60;99.90
36186;DHT22;22228;53.222;7.446;2023-04-06T17:36:31;11.60;99.90
36186;DHT22;22228;53.222;7.446;2023-04-06T17:38:54;11.50;99.90
36186;DHT22;22228;53.222;7.446;2023-04-06T17:41:20;11.40;99.90
36186;DHT22;22228;53.222;7.446;2023-04-06T17:43:41;11.40;99.90
36186;DHT22;22228;53.222;7.446;2023-04-06T17:46:03;11.30;99.90
36186;DHT22;22228;53.222;7.446;2023-04-06T17:48:24;11.20;99.90
36186;DHT22;22228;53.222;7.446;2023-04-06T17:50:46;11.10;99.90
36186;DHT22;22228;53.222;7.446;2023-04-06T17:53:06;11.00;99.90
36186;DHT22;22228;53.222;7.446;2023-04-06T17:55:28;11.00;99.90
36186;DHT22;22228;53.222;7.446;2023-04-06T17:58:17;10.90;99.90
36186;DHT22;22228;53.222;7.446;2023-04-06T18:01:04;10.90;99.90
36186;DHT22;22228;53.222;7.446;2023-04-06T18:03:28;10.80;99.90
36186;DHT22;22228;53.222;7.446;2023-04-06T18:05:49;10.70;99.90
36186;DHT22;22228;53.222;7.446;2023-04-06T18:08:11;10.60;99.90
36186;DHT22;22228;53.222;7.446;2023-04-06T18:10:36;10.50;99.90
36186;DHT22;22228;53.222;7.446;2023-04-06T18:12:57;10.50;99.90
36186;DHT22;22228;53.222;7.446;2023-04-06T18:15:24;10.40;99.90
36186;DHT22;22228;53.222;7.446;2023-04-06T18:17:51;10.30;99.90
36186;DHT22;22228;53.222;7.446;2023-04-06T18:20:19;10.30;99.90
36186;DHT22;22228;53.222;7.446;2023-04-06T18:22:42;10.20;99.90
36186;DHT22;22228;53.222;7.446;2023-04-06T18:25:04;10.20;99.90
36186;DHT22;22228;53.222;7.446;2023-04-06T18:27:32;10.20;99.90
36186;DHT22;22228;53.222;7.446;2023-04-06T18:29:55;10.10;99.90
36186;DHT22;22228;53.222;7.446;2023-04-06T18:32:21;10.00;99.90
36186;DHT22;22228;53.222;7.446;2023-04-06T18:34:41;9.90;99.90
36186;DHT22;22228;53.222;7.446;2023-04-06T18:37:29;9.90;99.90
36186;DHT22;22228;53.222;7.446;2023-04-06T18:39:49;9.80;99.90